sensor_id;sensor_type;location;lat;lon;timestamp;P1;durP1;ratioP1;P2;durP2;ratioP2
51925;SDS011;37952;51.938;15.480;2022-12-18T00:05:35;13.00;;;7.70;;
51925;SDS011;37952;51.938;15.480;2022-12-18T00:08:39;14.50;;;9.00;;
51925;SDS011;37952;51.938;15.480;2022-12-18T00:11:43;18.30;;;9.90;;
51925;SDS011;37952;51.938;15.480;2022-12-18T00:14:46;14.40;;;10.30;;
51925;SDS011;37952;51.938;15.480;2022-12-18T00:17:51;15.90;;;8.70;;
51925;SDS011;37952;51.938;15.480;2022-12-18T00:20:57;15.50;;;7.70;;
51925;SDS011;37952;51.938;15.480;2022-12-18T00:24:05;21.70;;;10.30;;
51925;SDS011;37952;51.938;15.480;2022-12-18T00:27:08;21.50;;;9.80;;
51925;SDS011;37952;51.938;15.480;2022-12-18T00:30:11;18.00;;;11.00;;
51925;SDS011;37952;51.938;15.480;2022-12-18T00:33:28;12.20;;;8.90;;
51925;SDS011;37952;51.938;15.480;2022-12-18T00:36:32;8.30;;;7.10;;
51925;SDS011;37952;51.938;15.480;2022-12-18T00:39:37;14.40;;;8.10;;
51925;SDS011;37952;51.938;15.480;2022-12-18T00:42:40;12.50;;;8.20;;
51925;SDS011;37952;51.938;15.480;2022-12-18T00:45:57;13.50;;;9.60;;
51925;SDS011;37952;51.938;15.480;2022-12-18T00:49:00;12.80;;;8.80;;
51925;SDS011;37952;51.938;15.480;2022-12-18T00:52:04;16.40;;;9.30;;
51925;SDS011;37952;51.938;15.480;2022-12-18T00:58:41;17.60;;;9.40;;
51925;SDS011;37952;51.938;15.480;2022-12-18T01:01:44;14.40;;;10.00;;
51925;SDS011;37952;51.938;15.480;2022-12-18T01:08:47;15.80;;;8.30;;
51925;SDS011;37952;51.938;15.480;2022-12-18T01:11:50;14.50;;;8.80;;
51925;SDS011;37952;51.938;15.480;2022-12-18T01:14:53;18.80;;;9.70;;
51925;SDS011;37952;51.938;15.480;2022-12-18T01:17:56;13.80;;;9.90;;
51925;SDS011;37952;51.938;15.480;2022-12-18T01:20:59;14.70;;;9.40;;
51925;SDS011;37952;51.938;15.480;2022-12-18T01:24:03;12.70;;;8.30;;
51925;SDS011;37952;51.938;15.480;2022-12-18T01:27:06;12.80;;;8.70;;
51925;SDS011;37952;51.938;15.480;2022-12-18T01:30:10;15.10;;;9.50;;
51925;SDS011;37952;51.938;15.480;2022-12-18T01:33:13;11.40;;;7.80;;
51925;SDS011;37952;51.938;15.480;2022-12-18T01:36:17;12.90;;;8.60;;
51925;SDS011;37952;51.938;15.480;2022-12-18T01:39:22;9.90;;;7.20;;
51925;SDS011;37952;51.938;15.480;2022-12-18T01:42:25;7.80;;;6.80;;
51925;SDS011;37952;51.938;15.480;2022-12-18T01:45:29;11.70;;;7.30;;
51925;SDS011;37952;51.938;15.480;2022-12-18T01:48:35;11.60;;;7.60;;
51925;SDS011;37952;51.938;15.480;2022-12-18T01:51:39;14.90;;;8.30;;
51925;SDS011;37952;51.938;15.480;2022-12-18T01:54:42;10.40;;;7.10;;
51925;SDS011;37952;51.938;15.480;2022-12-18T01:57:46;10.40;;;7.80;;
51925;SDS011;37952;51.938;15.480;2022-12-18T02:00:49;8.60;;;6.30;;
51925;SDS011;37952;51.938;15.480;2022-12-18T02:03:52;8.80;;;6.80;;
51925;SDS011;37952;51.938;15.480;2022-12-18T02:07:14;12.10;;;7.00;;
51925;SDS011;37952;51.938;15.480;2022-12-18T02:20:34;10.40;;;6.50;;
51925;SDS011;37952;51.938;15.480;2022-12-18T02:27:06;13.10;;;7.60;;
51925;SDS011;37952;51.938;15.480;2022-12-18T02:30:12;10.10;;;7.10;;
51925;SDS011;37952;51.938;15.480;2022-12-18T02:33:16;12.40;;;8.80;;
51925;SDS011;37952;51.938;15.480;2022-12-18T02:36:23;7.20;;;5.90;;
51925;SDS011;37952;51.938;15.480;2022-12-18T02:39:28;7.60;;;6.30;;
51925;SDS011;37952;51.938;15.480;2022-12-18T02:42:33;9.10;;;7.20;;
51925;SDS011;37952;51.938;15.480;2022-12-18T02:45:37;12.50;;;7.80;;
51925;SDS011;37952;51.938;15.480;2022-12-18T02:49:05;14.50;;;7.50;;
51925;SDS011;37952;51.938;15.480;2022-12-18T03:00:21;6.60;;;5.90;;
51925;SDS011;37952;51.938;15.480;2022-12-18T03:03:29;6.50;;;5.70;;
51925;SDS011;37952;51.938;15.480;2022-12-18T03:06:39;10.40;;;6.20;;
51925;SDS011;37952;51.938;15.480;2022-12-18T03:09:46;8.40;;;6.50;;
51925;SDS011;37952;51.938;15.480;2022-12-18T03:12:54;9.50;;;7.50;;
51925;SDS011;37952;51.938;15.480;2022-12-18T03:16:03;7.60;;;6.00;;
51925;SDS011;37952;51.938;15.480;2022-12-18T03:19:10;11.30;;;7.20;;
51925;SDS011;37952;51.938;15.480;2022-12-18T03:22:17;14.40;;;8.10;;
51925;SDS011;37952;51.938;15.480;2022-12-18T03:25:22;10.60;;;7.30;;
51925;SDS011;37952;51.938;15.480;2022-12-18T03:28:28;11.00;;;7.60;;
51925;SDS011;37952;51.938;15.480;2022-12-18T03:31:40;7.60;;;6.90;;
51925;SDS011;37952;51.938;15.480;2022-12-18T03:34:48;5.90;;;5.30;;
51925;SDS011;37952;51.938;15.480;2022-12-18T03:37:55;12.40;;;7.50;;
51925;SDS011;37952;51.938;15.480;2022-12-18T03:44:26;7.40;;;6.10;;
51925;SDS011;37952;51.938;15.480;2022-12-18T03:47:41;9.30;;;7.80;;
51925;SDS011;37952;51.938;15.480;2022-12-18T03:50:56;9.50;;;8.10;;
51925;SDS011;37952;51.938;15.480;2022-12-18T03:58:23;17.30;;;8.10;;
51925;SDS011;37952;51.938;15.480;2022-12-18T04:01:30;18.20;;;9.60;;
51925;SDS011;37952;51.938;15.480;2022-12-18T04:04:37;16.80;;;10.30;;
51925;SDS011;37952;51.938;15.480;2022-12-18T04:07:42;12.30;;;8.80;;
51925;SDS011;37952;51.938;15.480;2022-12-18T04:10:47;16.30;;;9.00;;
51925;SDS011;37952;51.938;15.480;2022-12-18T04:13:57;15.60;;;9.40;;
51925;SDS011;37952;51.938;15.480;2022-12-18T04:17:00;20.20;;;9.50;;
51925;SDS011;37952;51.938;15.480;2022-12-18T04:20:03;19.10;;;11.10;;
51925;SDS011;37952;51.938;15.480;2022-12-18T04:23:06;19.60;;;12.40;;
51925;SDS011;37952;51.938;15.480;2022-12-18T04:26:09;17.30;;;9.70;;
51925;SDS011;37952;51.938;15.480;2022-12-18T04:29:12;20.70;;;11.70;;
51925;SDS011;37952;51.938;15.480;2022-12-18T04:32:15;22.20;;;11.40;;
51925;SDS011;37952;51.938;15.480;2022-12-18T04:35:19;23.70;;;11.90;;
51925;SDS011;37952;51.938;15.480;2022-12-18T04:38:22;23.10;;;12.90;;
51925;SDS011;37952;51.938;15.480;2022-12-18T04:41:24;23.80;;;13.20;;
51925;SDS011;37952;51.938;15.480;2022-12-18T04:44:27;20.10;;;10.80;;
51925;SDS011;37952;51.938;15.480;2022-12-18T04:47:30;19.10;;;11.00;;
51925;SDS011;37952;51.938;15.480;2022-12-18T04:54:02;20.50;;;10.70;;
51925;SDS011;37952;51.938;15.480;2022-12-18T04:57:06;14.80;;;9.90;;
51925;SDS011;37952;51.938;15.480;2022-12-18T05:00:09;17.50;;;9.30;;
51925;SDS011;37952;51.938;15.480;2022-12-18T05:03:13;15.90;;;8.90;;
51925;SDS011;37952;51.938;15.480;2022-12-18T05:06:15;14.40;;;8.50;;
51925;SDS011;37952;51.938;15.480;2022-12-18T05:09:18;18.70;;;9.30;;
51925;SDS011;37952;51.938;15.480;2022-12-18T05:12:24;17.00;;;8.80;;
51925;SDS011;37952;51.938;15.480;2022-12-18T05:15:28;18.60;;;9.50;;
51925;SDS011;37952;51.938;15.480;2022-12-18T05:18:32;13.10;;;7.30;;
51925;SDS011;37952;51.938;15.480;2022-12-18T05:21:54;13.80;;;7.20;;
51925;SDS011;37952;51.938;15.480;2022-12-18T05:24:56;19.20;;;8.70;;
51925;SDS011;37952;51.938;15.480;2022-12-18T05:27:59;15.10;;;8.30;;
51925;SDS011;37952;51.938;15.480;2022-12-18T05:31:03;20.50;;;9.10;;
51925;SDS011;37952;51.938;15.480;2022-12-18T05:34:06;7.70;;;6.20;;
51925;SDS011;37952;51.938;15.480;2022-12-18T05:37:09;12.00;;;6.80;;
51925;SDS011;37952;51.938;15.480;2022-12-18T05:40:12;15.50;;;7.60;;
51925;SDS011;37952;51.938;15.480;2022-12-18T05:43:15;16.20;;;8.30;;
51925;SDS011;37952;51.938;15.480;2022-12-18T05:46:23;12.60;;;7.60;;
51925;SDS011;37952;51.938;15.480;2022-12-18T05:49:26;12.80;;;7.90;;
51925;SDS011;37952;51.938;15.480;2022-12-18T05:52:30;10.10;;;7.40;;
51925;SDS011;37952;51.938;15.480;2022-12-18T05:55:36;8.80;;;6.40;;
51925;SDS011;37952;51.938;15.480;2022-12-18T05:58:41;13.60;;;8.00;;
51925;SDS011;37952;51.938;15.480;2022-12-18T06:01:44;13.70;;;7.90;;
51925;SDS011;37952;51.938;15.480;2022-12-18T06:04:48;14.50;;;8.20;;
51925;SDS011;37952;51.938;15.480;2022-12-18T06:07:51;12.80;;;8.20;;
51925;SDS011;37952;51.938;15.480;2022-12-18T06:10:55;9.80;;;7.30;;
51925;SDS011;37952;51.938;15.480;2022-12-18T06:13:58;10.80;;;7.60;;
51925;SDS011;37952;51.938;15.480;2022-12-18T06:17:02;13.10;;;7.90;;
51925;SDS011;37952;51.938;15.480;2022-12-18T06:20:05;16.90;;;8.40;;
51925;SDS011;37952;51.938;15.480;2022-12-18T06:23:12;12.70;;;8.70;;
51925;SDS011;37952;51.938;15.480;2022-12-18T06:26:46;13.90;;;8.70;;
51925;SDS011;37952;51.938;15.480;2022-12-18T06:29:49;12.70;;;7.90;;
51925;SDS011;37952;51.938;15.480;2022-12-18T06:32:52;12.10;;;7.20;;
51925;SDS011;37952;51.938;15.480;2022-12-18T06:36:02;14.10;;;7.30;;
51925;SDS011;37952;51.938;15.480;2022-12-18T06:39:07;18.70;;;7.90;;
51925;SDS011;37952;51.938;15.480;2022-12-18T06:42:10;13.20;;;8.00;;
51925;SDS011;37952;51.938;15.480;2022-12-18T06:45:13;11.70;;;7.70;;
51925;SDS011;37952;51.938;15.480;2022-12-18T06:48:16;9.80;;;6.70;;
51925;SDS011;37952;51.938;15.480;2022-12-18T06:51:20;9.40;;;6.90;;
51925;SDS011;37952;51.938;15.480;2022-12-18T06:54:26;15.10;;;7.80;;
51925;SDS011;37952;51.938;15.480;2022-12-18T06:57:29;18.00;;;8.10;;
51925;SDS011;37952;51.938;15.480;2022-12-18T07:00:34;12.10;;;7.70;;
51925;SDS011;37952;51.938;15.480;2022-12-18T07:03:40;11.90;;;6.60;;
51925;SDS011;37952;51.938;15.480;2022-12-18T07:06:45;16.90;;;7.50;;
51925;SDS011;37952;51.938;15.480;2022-12-18T07:09:49;18.70;;;8.10;;
51925;SDS011;37952;51.938;15.480;2022-12-18T07:12:52;11.80;;;8.70;;
51925;SDS011;37952;51.938;15.480;2022-12-18T07:15:55;14.50;;;7.90;;
51925;SDS011;37952;51.938;15.480;2022-12-18T07:18:59;14.30;;;7.10;;
51925;SDS011;37952;51.938;15.480;2022-12-18T07:22:09;14.30;;;7.60;;
51925;SDS011;37952;51.938;15.480;2022-12-18T07:25:12;17.90;;;8.10;;
51925;SDS011;37952;51.938;15.480;2022-12-18T07:28:15;12.20;;;7.80;;
51925;SDS011;37952;51.938;15.480;2022-12-18T07:31:20;13.80;;;8.40;;
51925;SDS011;37952;51.938;15.480;2022-12-18T07:34:24;15.20;;;7.50;;
51925;SDS011;37952;51.938;15.480;2022-12-18T07:37:29;14.60;;;7.60;;
51925;SDS011;37952;51.938;15.480;2022-12-18T07:40:35;10.50;;;6.90;;
51925;SDS011;37952;51.938;15.480;2022-12-18T07:43:40;13.90;;;7.60;;
51925;SDS011;37952;51.938;15.480;2022-12-18T07:46:44;11.80;;;7.90;;
51925;SDS011;37952;51.938;15.480;2022-12-18T07:49:47;9.40;;;6.60;;
51925;SDS011;37952;51.938;15.480;2022-12-18T07:52:50;9.80;;;6.40;;
51925;SDS011;37952;51.938;15.480;2022-12-18T07:56:01;16.60;;;8.20;;
51925;SDS011;37952;51.938;15.480;2022-12-18T07:59:26;14.30;;;7.50;;
51925;SDS011;37952;51.938;15.480;2022-12-18T08:02:30;16.10;;;8.30;;
51925;SDS011;37952;51.938;15.480;2022-12-18T08:05:34;15.70;;;8.80;;
51925;SDS011;37952;51.938;15.480;2022-12-18T08:08:37;17.70;;;8.90;;
51925;SDS011;37952;51.938;15.480;2022-12-18T08:15:10;13.20;;;7.30;;
51925;SDS011;37952;51.938;15.480;2022-12-18T08:18:13;21.80;;;9.30;;
51925;SDS011;37952;51.938;15.480;2022-12-18T08:21:17;15.40;;;8.10;;
51925;SDS011;37952;51.938;15.480;2022-12-18T08:24:23;17.90;;;9.10;;
51925;SDS011;37952;51.938;15.480;2022-12-18T08:27:26;12.10;;;8.60;;
51925;SDS011;37952;51.938;15.480;2022-12-18T08:30:31;12.30;;;7.60;;
51925;SDS011;37952;51.938;15.480;2022-12-18T08:33:35;11.40;;;7.30;;
51925;SDS011;37952;51.938;15.480;2022-12-18T08:36:40;14.70;;;7.50;;
51925;SDS011;37952;51.938;15.480;2022-12-18T08:39:43;16.00;;;8.90;;
51925;SDS011;37952;51.938;15.480;2022-12-18T08:42:46;14.40;;;9.40;;
51925;SDS011;37952;51.938;15.480;2022-12-18T08:46:08;15.90;;;8.00;;
51925;SDS011;37952;51.938;15.480;2022-12-18T08:49:11;13.90;;;8.30;;
51925;SDS011;37952;51.938;15.480;2022-12-18T08:52:14;21.70;;;9.70;;
51925;SDS011;37952;51.938;15.480;2022-12-18T08:55:19;27.00;;;10.60;;
51925;SDS011;37952;51.938;15.480;2022-12-18T08:58:23;21.50;;;10.70;;
51925;SDS011;37952;51.938;15.480;2022-12-18T09:01:26;18.10;;;11.30;;
51925;SDS011;37952;51.938;15.480;2022-12-18T09:04:30;17.50;;;10.40;;
51925;SDS011;37952;51.938;15.480;2022-12-18T09:07:32;17.20;;;9.40;;
51925;SDS011;37952;51.938;15.480;2022-12-18T09:10:41;22.30;;;10.30;;
51925;SDS011;37952;51.938;15.480;2022-12-18T09:13:52;18.00;;;9.70;;
51925;SDS011;37952;51.938;15.480;2022-12-18T09:16:56;15.90;;;10.00;;
51925;SDS011;37952;51.938;15.480;2022-12-18T09:19:59;19.30;;;10.10;;
51925;SDS011;37952;51.938;15.480;2022-12-18T09:23:02;20.10;;;9.70;;
51925;SDS011;37952;51.938;15.480;2022-12-18T09:26:08;23.70;;;10.00;;
51925;SDS011;37952;51.938;15.480;2022-12-18T09:29:11;20.20;;;10.60;;
51925;SDS011;37952;51.938;15.480;2022-12-18T09:32:14;16.50;;;10.50;;
51925;SDS011;37952;51.938;15.480;2022-12-18T09:35:23;18.80;;;10.40;;
51925;SDS011;37952;51.938;15.480;2022-12-18T09:38:26;25.50;;;10.60;;
51925;SDS011;37952;51.938;15.480;2022-12-18T09:44:59;31.70;;;12.30;;
51925;SDS011;37952;51.938;15.480;2022-12-18T09:48:03;24.70;;;12.90;;
51925;SDS011;37952;51.938;15.480;2022-12-18T09:51:30;21.70;;;10.90;;
51925;SDS011;37952;51.938;15.480;2022-12-18T09:54:57;17.40;;;9.60;;
51925;SDS011;37952;51.938;15.480;2022-12-18T09:58:06;29.30;;;12.00;;
51925;SDS011;37952;51.938;15.480;2022-12-18T10:01:21;21.40;;;10.60;;
51925;SDS011;37952;51.938;15.480;2022-12-18T10:04:25;20.20;;;12.40;;
51925;SDS011;37952;51.938;15.480;2022-12-18T10:08:08;12.80;;;8.40;;
51925;SDS011;37952;51.938;15.480;2022-12-18T10:14:34;21.40;;;10.90;;
51925;SDS011;37952;51.938;15.480;2022-12-18T10:20:56;18.00;;;10.70;;
51925;SDS011;37952;51.938;15.480;2022-12-18T10:24:26;20.90;;;10.90;;
51925;SDS011;37952;51.938;15.480;2022-12-18T10:27:43;17.60;;;9.90;;
51925;SDS011;37952;51.938;15.480;2022-12-18T10:30:47;27.30;;;12.00;;
51925;SDS011;37952;51.938;15.480;2022-12-18T10:33:51;26.60;;;11.30;;
51925;SDS011;37952;51.938;15.480;2022-12-18T10:36:57;20.40;;;11.10;;
51925;SDS011;37952;51.938;15.480;2022-12-18T10:40:12;27.20;;;11.60;;
51925;SDS011;37952;51.938;15.480;2022-12-18T10:46:37;20.80;;;11.10;;
51925;SDS011;37952;51.938;15.480;2022-12-18T10:49:49;21.30;;;11.70;;
51925;SDS011;37952;51.938;15.480;2022-12-18T10:52:59;20.70;;;10.90;;
51925;SDS011;37952;51.938;15.480;2022-12-18T10:56:06;22.80;;;11.10;;
51925;SDS011;37952;51.938;15.480;2022-12-18T10:59:11;23.80;;;13.00;;
51925;SDS011;37952;51.938;15.480;2022-12-18T11:02:26;16.10;;;10.40;;
51925;SDS011;37952;51.938;15.480;2022-12-18T11:05:37;21.40;;;10.60;;
51925;SDS011;37952;51.938;15.480;2022-12-18T11:08:41;24.50;;;11.00;;
51925;SDS011;37952;51.938;15.480;2022-12-18T11:11:53;19.10;;;10.40;;
51925;SDS011;37952;51.938;15.480;2022-12-18T11:14:59;19.10;;;10.80;;
51925;SDS011;37952;51.938;15.480;2022-12-18T11:18:02;21.50;;;11.10;;
51925;SDS011;37952;51.938;15.480;2022-12-18T11:21:08;23.30;;;10.50;;
51925;SDS011;37952;51.938;15.480;2022-12-18T11:24:19;24.80;;;12.00;;
51925;SDS011;37952;51.938;15.480;2022-12-18T11:27:26;32.80;;;13.40;;
51925;SDS011;37952;51.938;15.480;2022-12-18T11:30:37;17.00;;;10.60;;
51925;SDS011;37952;51.938;15.480;2022-12-18T11:33:41;20.50;;;12.20;;
51925;SDS011;37952;51.938;15.480;2022-12-18T11:37:07;20.30;;;11.30;;
51925;SDS011;37952;51.938;15.480;2022-12-18T11:40:16;26.80;;;12.50;;
51925;SDS011;37952;51.938;15.480;2022-12-18T11:43:30;22.20;;;11.50;;
51925;SDS011;37952;51.938;15.480;2022-12-18T11:46:43;25.90;;;13.80;;
51925;SDS011;37952;51.938;15.480;2022-12-18T11:49:52;22.00;;;11.60;;
51925;SDS011;37952;51.938;15.480;2022-12-18T11:52:58;24.90;;;11.80;;
51925;SDS011;37952;51.938;15.480;2022-12-18T11:56:19;25.40;;;13.20;;
51925;SDS011;37952;51.938;15.480;2022-12-18T11:59:49;27.20;;;12.50;;
51925;SDS011;37952;51.938;15.480;2022-12-18T12:03:06;18.60;;;12.30;;
51925;SDS011;37952;51.938;15.480;2022-12-18T12:06:28;20.90;;;10.80;;
51925;SDS011;37952;51.938;15.480;2022-12-18T12:13:20;27.10;;;12.70;;
51925;SDS011;37952;51.938;15.480;2022-12-18T12:16:29;25.60;;;13.00;;
51925;SDS011;37952;51.938;15.480;2022-12-18T12:26:16;24.80;;;11.80;;
51925;SDS011;37952;51.938;15.480;2022-12-18T12:40:10;25.00;;;13.70;;
51925;SDS011;37952;51.938;15.480;2022-12-18T12:43:44;21.00;;;11.90;;
51925;SDS011;37952;51.938;15.480;2022-12-18T12:46:52;28.20;;;14.00;;
51925;SDS011;37952;51.938;15.480;2022-12-18T12:50:02;21.70;;;12.80;;
51925;SDS011;37952;51.938;15.480;2022-12-18T12:53:21;23.60;;;14.00;;
51925;SDS011;37952;51.938;15.480;2022-12-18T13:02:52;19.50;;;12.70;;
51925;SDS011;37952;51.938;15.480;2022-12-18T13:06:28;24.10;;;12.90;;
51925;SDS011;37952;51.938;15.480;2022-12-18T13:09:35;22.50;;;14.60;;
51925;SDS011;37952;51.938;15.480;2022-12-18T13:13:19;21.30;;;12.30;;
51925;SDS011;37952;51.938;15.480;2022-12-18T13:16:25;29.60;;;13.70;;
51925;SDS011;37952;51.938;15.480;2022-12-18T13:19:32;26.50;;;13.10;;
51925;SDS011;37952;51.938;15.480;2022-12-18T13:25:49;25.50;;;14.80;;
51925;SDS011;37952;51.938;15.480;2022-12-18T13:28:56;24.30;;;14.50;;
51925;SDS011;37952;51.938;15.480;2022-12-18T13:32:00;22.00;;;13.50;;
51925;SDS011;37952;51.938;15.480;2022-12-18T13:38:34;29.30;;;14.20;;
51925;SDS011;37952;51.938;15.480;2022-12-18T13:41:39;27.70;;;14.90;;
51925;SDS011;37952;51.938;15.480;2022-12-18T13:44:43;35.50;;;15.20;;
51925;SDS011;37952;51.938;15.480;2022-12-18T13:47:47;24.70;;;15.40;;
51925;SDS011;37952;51.938;15.480;2022-12-18T13:50:57;23.90;;;14.00;;
51925;SDS011;37952;51.938;15.480;2022-12-18T13:54:15;28.50;;;14.60;;
51925;SDS011;37952;51.938;15.480;2022-12-18T14:00:41;28.90;;;15.80;;
51925;SDS011;37952;51.938;15.480;2022-12-18T14:03:45;31.60;;;16.00;;
51925;SDS011;37952;51.938;15.480;2022-12-18T14:06:50;27.20;;;16.10;;
51925;SDS011;37952;51.938;15.480;2022-12-18T14:09:57;21.20;;;13.90;;
51925;SDS011;37952;51.938;15.480;2022-12-18T14:13:30;28.40;;;15.20;;
51925;SDS011;37952;51.938;15.480;2022-12-18T14:16:36;34.40;;;15.70;;
51925;SDS011;37952;51.938;15.480;2022-12-18T14:19:43;37.70;;;17.20;;
51925;SDS011;37952;51.938;15.480;2022-12-18T14:22:48;36.90;;;18.20;;
51925;SDS011;37952;51.938;15.480;2022-12-18T14:25:52;31.70;;;18.60;;
51925;SDS011;37952;51.938;15.480;2022-12-18T14:28:55;29.90;;;16.70;;
51925;SDS011;37952;51.938;15.480;2022-12-18T14:32:15;29.20;;;15.20;;
51925;SDS011;37952;51.938;15.480;2022-12-18T14:35:21;44.50;;;20.40;;
51925;SDS011;37952;51.938;15.480;2022-12-18T14:41:38;47.10;;;20.80;;
51925;SDS011;37952;51.938;15.480;2022-12-18T14:44:41;40.30;;;21.00;;
51925;SDS011;37952;51.938;15.480;2022-12-18T14:48:07;35.50;;;18.60;;
51925;SDS011;37952;51.938;15.480;2022-12-18T14:54:24;43.20;;;18.80;;
51925;SDS011;37952;51.938;15.480;2022-12-18T14:57:30;32.80;;;17.30;;
51925;SDS011;37952;51.938;15.480;2022-12-18T15:00:38;32.50;;;17.70;;
51925;SDS011;37952;51.938;15.480;2022-12-18T15:03:44;33.80;;;19.30;;
51925;SDS011;37952;51.938;15.480;2022-12-18T15:06:48;29.60;;;17.10;;
51925;SDS011;37952;51.938;15.480;2022-12-18T15:10:09;33.50;;;17.70;;
51925;SDS011;37952;51.938;15.480;2022-12-18T15:13:25;43.10;;;20.10;;
51925;SDS011;37952;51.938;15.480;2022-12-18T15:16:29;47.10;;;20.50;;
51925;SDS011;37952;51.938;15.480;2022-12-18T15:19:34;33.10;;;18.10;;
51925;SDS011;37952;51.938;15.480;2022-12-18T15:25:44;31.50;;;16.80;;
51925;SDS011;37952;51.938;15.480;2022-12-18T15:28:48;47.60;;;20.50;;
51925;SDS011;37952;51.938;15.480;2022-12-18T15:31:59;41.70;;;20.60;;
51925;SDS011;37952;51.938;15.480;2022-12-18T15:35:21;34.30;;;17.70;;
51925;SDS011;37952;51.938;15.480;2022-12-18T15:38:26;36.70;;;18.50;;
51925;SDS011;37952;51.938;15.480;2022-12-18T15:41:31;40.60;;;18.40;;
51925;SDS011;37952;51.938;15.480;2022-12-18T15:44:39;47.20;;;21.00;;
51925;SDS011;37952;51.938;15.480;2022-12-18T15:47:41;51.50;;;21.50;;
51925;SDS011;37952;51.938;15.480;2022-12-18T15:50:45;39.30;;;19.20;;
51925;SDS011;37952;51.938;15.480;2022-12-18T15:53:51;31.30;;;17.40;;
51925;SDS011;37952;51.938;15.480;2022-12-18T15:56:57;41.40;;;19.10;;
51925;SDS011;37952;51.938;15.480;2022-12-18T16:00:18;47.60;;;19.80;;
51925;SDS011;37952;51.938;15.480;2022-12-18T16:03:22;46.40;;;19.20;;
51925;SDS011;37952;51.938;15.480;2022-12-18T16:06:26;37.10;;;19.30;;
51925;SDS011;37952;51.938;15.480;2022-12-18T16:09:49;32.60;;;16.60;;
51925;SDS011;37952;51.938;15.480;2022-12-18T16:12:52;40.10;;;18.10;;
51925;SDS011;37952;51.938;15.480;2022-12-18T16:15:55;46.10;;;18.90;;
51925;SDS011;37952;51.938;15.480;2022-12-18T16:18:58;62.90;;;22.00;;
51925;SDS011;37952;51.938;15.480;2022-12-18T16:22:02;46.10;;;19.50;;
51925;SDS011;37952;51.938;15.480;2022-12-18T16:25:05;36.20;;;18.70;;
51925;SDS011;37952;51.938;15.480;2022-12-18T16:28:08;34.80;;;17.00;;
51925;SDS011;37952;51.938;15.480;2022-12-18T16:31:11;43.50;;;19.60;;
51925;SDS011;37952;51.938;15.480;2022-12-18T16:34:18;50.30;;;20.60;;
51925;SDS011;37952;51.938;15.480;2022-12-18T16:37:30;55.50;;;22.60;;
51925;SDS011;37952;51.938;15.480;2022-12-18T16:40:33;50.20;;;20.70;;
51925;SDS011;37952;51.938;15.480;2022-12-18T16:43:55;40.10;;;20.30;;
51925;SDS011;37952;51.938;15.480;2022-12-18T16:46:58;34.40;;;19.30;;
51925;SDS011;37952;51.938;15.480;2022-12-18T16:50:05;44.60;;;20.90;;
51925;SDS011;37952;51.938;15.480;2022-12-18T16:53:10;53.10;;;22.70;;
51925;SDS011;37952;51.938;15.480;2022-12-18T16:56:13;56.80;;;24.20;;
51925;SDS011;37952;51.938;15.480;2022-12-18T16:59:16;41.90;;;21.30;;
51925;SDS011;37952;51.938;15.480;2022-12-18T17:02:20;41.20;;;19.90;;
51925;SDS011;37952;51.938;15.480;2022-12-18T17:05:27;46.50;;;20.30;;
51925;SDS011;37952;51.938;15.480;2022-12-18T17:08:29;56.50;;;22.50;;
51925;SDS011;37952;51.938;15.480;2022-12-18T17:11:33;53.90;;;20.90;;
51925;SDS011;37952;51.938;15.480;2022-12-18T17:14:39;41.80;;;18.50;;
51925;SDS011;37952;51.938;15.480;2022-12-18T17:17:42;35.80;;;20.00;;
51925;SDS011;37952;51.938;15.480;2022-12-18T17:20:45;38.60;;;19.00;;
51925;SDS011;37952;51.938;15.480;2022-12-18T17:23:48;49.60;;;20.60;;
51925;SDS011;37952;51.938;15.480;2022-12-18T17:26:51;47.50;;;20.30;;
51925;SDS011;37952;51.938;15.480;2022-12-18T17:29:54;48.60;;;21.10;;
51925;SDS011;37952;51.938;15.480;2022-12-18T17:32:57;47.00;;;22.70;;
51925;SDS011;37952;51.938;15.480;2022-12-18T17:35:59;42.80;;;21.00;;
51925;SDS011;37952;51.938;15.480;2022-12-18T17:39:03;41.50;;;19.90;;
51925;SDS011;37952;51.938;15.480;2022-12-18T17:42:07;52.50;;;22.10;;
51925;SDS011;37952;51.938;15.480;2022-12-18T17:45:17;49.70;;;22.50;;
51925;SDS011;37952;51.938;15.480;2022-12-18T17:48:20;64.10;;;25.40;;
51925;SDS011;37952;51.938;15.480;2022-12-18T17:51:24;60.00;;;24.00;;
51925;SDS011;37952;51.938;15.480;2022-12-18T17:54:27;41.60;;;22.00;;
51925;SDS011;37952;51.938;15.480;2022-12-18T17:57:30;49.30;;;21.40;;
51925;SDS011;37952;51.938;15.480;2022-12-18T18:00:33;46.50;;;20.90;;
51925;SDS011;37952;51.938;15.480;2022-12-18T18:03:36;52.30;;;23.30;;
51925;SDS011;37952;51.938;15.480;2022-12-18T18:06:43;54.10;;;23.90;;
51925;SDS011;37952;51.938;15.480;2022-12-18T18:09:46;41.80;;;19.50;;
51925;SDS011;37952;51.938;15.480;2022-12-18T18:12:49;35.40;;;19.20;;
51925;SDS011;37952;51.938;15.480;2022-12-18T18:16:13;37.90;;;16.80;;
51925;SDS011;37952;51.938;15.480;2022-12-18T18:19:19;52.10;;;21.80;;
51925;SDS011;37952;51.938;15.480;2022-12-18T18:22:24;54.10;;;21.80;;
51925;SDS011;37952;51.938;15.480;2022-12-18T18:25:27;34.50;;;18.20;;
51925;SDS011;37952;51.938;15.480;2022-12-18T18:28:30;34.50;;;18.60;;
51925;SDS011;37952;51.938;15.480;2022-12-18T18:31:33;51.20;;;20.60;;
51925;SDS011;37952;51.938;15.480;2022-12-18T18:34:42;42.70;;;19.60;;
51925;SDS011;37952;51.938;15.480;2022-12-18T18:37:49;48.90;;;20.60;;
51925;SDS011;37952;51.938;15.480;2022-12-18T18:41:00;41.20;;;18.80;;
51925;SDS011;37952;51.938;15.480;2022-12-18T18:44:05;49.50;;;22.80;;
51925;SDS011;37952;51.938;15.480;2022-12-18T18:47:08;44.60;;;18.00;;
51925;SDS011;37952;51.938;15.480;2022-12-18T18:50:11;55.30;;;21.30;;
51925;SDS011;37952;51.938;15.480;2022-12-18T18:53:14;50.50;;;21.00;;
51925;SDS011;37952;51.938;15.480;2022-12-18T18:56:18;51.40;;;19.60;;
51925;SDS011;37952;51.938;15.480;2022-12-18T18:59:45;41.80;;;18.80;;
51925;SDS011;37952;51.938;15.480;2022-12-18T19:02:48;41.40;;;21.20;;
51925;SDS011;37952;51.938;15.480;2022-12-18T19:05:52;50.10;;;21.70;;
51925;SDS011;37952;51.938;15.480;2022-12-18T19:08:57;56.30;;;24.60;;
51925;SDS011;37952;51.938;15.480;2022-12-18T19:12:01;49.90;;;22.70;;
51925;SDS011;37952;51.938;15.480;2022-12-18T19:15:24;35.60;;;16.70;;
51925;SDS011;37952;51.938;15.480;2022-12-18T19:18:26;46.40;;;19.90;;
51925;SDS011;37952;51.938;15.480;2022-12-18T19:21:30;48.10;;;20.10;;
51925;SDS011;37952;51.938;15.480;2022-12-18T19:24:36;48.90;;;20.50;;
51925;SDS011;37952;51.938;15.480;2022-12-18T19:27:39;60.60;;;23.80;;
51925;SDS011;37952;51.938;15.480;2022-12-18T19:30:43;39.50;;;20.90;;
51925;SDS011;37952;51.938;15.480;2022-12-18T19:33:46;46.70;;;22.50;;
51925;SDS011;37952;51.938;15.480;2022-12-18T19:36:51;53.20;;;21.60;;
51925;SDS011;37952;51.938;15.480;2022-12-18T19:40:01;53.50;;;20.40;;
51925;SDS011;37952;51.938;15.480;2022-12-18T19:43:14;60.70;;;23.90;;
51925;SDS011;37952;51.938;15.480;2022-12-18T19:46:18;41.00;;;19.00;;
51925;SDS011;37952;51.938;15.480;2022-12-18T19:49:22;38.90;;;18.90;;
51925;SDS011;37952;51.938;15.480;2022-12-18T19:52:25;41.80;;;17.80;;
51925;SDS011;37952;51.938;15.480;2022-12-18T19:55:28;50.30;;;20.00;;